Terminal Aerodrome Forecast
Issued by NWS

Home | Current Version | Previous Version | Text Only | Print | Product List | Glossary On
Versions: 1 2 3 4 5 6 7 8 9 10 11 12 13 14 15 16 17 18 19 20 21 22 23 24 25 26 27 28
715
FTUS41 KOKX 251722
TAFGON
TAF
KGON 251722Z 2518/2618 18010KT P6SM SCT050
      TEMPO 2522/2602 4SM TSRA BKN040CB
     FM260200 23005KT 5SM -SHRA BKN050 BKN250
     FM260500 VRB03KT P6SM BKN050 BKN250
     FM260800 VRB03KT 5SM BR SCT250
     FM261200 32008KT P6SM SCT250
     FM261700 28010KT P6SM SCT050 SCT250=

USA.gov is the U.S. government's official web portal to all federal, state and local government web resources and services.